Time;durP1;ratioP1;P1;durP2;ratioP2;P2;SDS_P1;SDS_P2;PMS_P1;PMS_P2;Temp;Humidity;BMP_temperature;BMP_pressure;BME280_temperature;BME280_humidity;BME280_pressure;Samples;Min_cycle;Max_cycle;Signal;HPM_P1;HPM_P2
2020/12/31 00:01:50;;;;;;;19.80;15.73;;;;;;;;;;5032917;28;20844;-56
2020/12/31 00:04:17;;;;;;;20.80;16.48;;;;;;;;;;5032969;28;20207;-55
2020/12/31 00:06:44;;;;;;;22.35;17.27;;;;;;;;;;5033298;28;20263;-56
2020/12/31 00:09:11;;;;;;;17.30;14.32;;;;;;;;;;5033080;28;20725;-56
2020/12/31 00:11:38;;;;;;;22.17;16.73;;;;;;;;;;5033237;28;20270;-56
2020/12/31 00:14:07;;;;;;;20.45;16.38;;;;;;;;;;5033787;28;20202;-55
2020/12/31 00:16:34;;;;;;;21.95;16.00;;;;;;;;;;5033324;28;20206;-55
2020/12/31 00:19:01;;;;;;;25.27;17.40;;;;;;;;;;5033145;28;20194;-56
2020/12/31 00:21:28;;;;;;;24.02;18.08;;;;;;;;;;5033040;28;20222;-56
2020/12/31 00:23:55;;;;;;;24.25;17.90;;;;;;;;;;5036579;28;20202;-56
2020/12/31 00:26:22;;;;;;;21.92;17.10;;;;;;;;;;5037221;28;20288;-55
2020/12/31 00:28:49;;;;;;;25.48;16.02;;;;;;;;;;5037098;28;20225;-56
2020/12/31 00:31:15;;;;;;;19.73;14.93;;;;;;;;;;5037178;28;20268;-56
2020/12/31 00:33:42;;;;;;;20.17;16.23;;;;;;;;;;5037724;28;20213;-56
2020/12/31 00:36:09;;;;;;;20.45;16.17;;;;;;;;;;5037402;28;20720;-56
2020/12/31 00:38:36;;;;;;;19.95;15.63;;;;;;;;;;5037100;28;20206;-54
2020/12/31 00:41:03;;;;;;;18.02;15.43;;;;;;;;;;5037142;28;20230;-55
2020/12/31 00:43:30;;;;;;;20.20;16.38;;;;;;;;;;5037226;28;20213;-55
2020/12/31 00:45:57;;;;;;;19.10;14.38;;;;;;;;;;5036938;28;20693;-55
2020/12/31 00:48:23;;;;;;;20.33;14.00;;;;;;;;;;5036945;28;20218;-55
2020/12/31 00:50:50;;;;;;;22.05;15.25;;;;;;;;;;5037557;28;20202;-56
2020/12/31 00:53:17;;;;;;;19.25;14.27;;;;;;;;;;5037151;28;20202;-55
2020/12/31 00:55:44;;;;;;;18.45;14.88;;;;;;;;;;5037062;28;20210;-56
2020/12/31 00:58:11;;;;;;;20.20;15.40;;;;;;;;;;5037333;28;20198;-56
2020/12/31 01:00:38;;;;;;;17.25;14.07;;;;;;;;;;5036865;28;20198;-56
2020/12/31 01:03:06;;;;;;;21.25;14.75;;;;;;;;;;5036587;28;20280;-55
2020/12/31 01:05:32;;;;;;;20.25;14.60;;;;;;;;;;5036590;28;20633;-55
2020/12/31 01:07:59;;;;;;;21.80;14.30;;;;;;;;;;5036149;28;20695;-56
2020/12/31 01:10:26;;;;;;;18.35;14.25;;;;;;;;;;5036388;28;20249;-56
2020/12/31 01:12:53;;;;;;;22.38;14.75;;;;;;;;;;5036800;28;20223;-56
2020/12/31 01:15:20;;;;;;;20.25;13.98;;;;;;;;;;5036498;28;20213;-56
2020/12/31 01:17:47;;;;;;;18.27;13.18;;;;;;;;;;5036380;28;20225;-57
2020/12/31 01:20:14;;;;;;;21.15;14.55;;;;;;;;;;5036021;28;20207;-56
2020/12/31 01:22:40;;;;;;;17.80;14.88;;;;;;;;;;5036168;28;20223;-56
2020/12/31 01:25:07;;;;;;;18.45;13.55;;;;;;;;;;5036186;28;20211;-56
2020/12/31 01:27:34;;;;;;;17.55;13.32;;;;;;;;;;5036018;28;20265;-56
2020/12/31 01:30:02;;;;;;;17.08;12.85;;;;;;;;;;5036008;28;20199;-55
2020/12/31 01:32:28;;;;;;;15.32;13.02;;;;;;;;;;5036004;28;20218;-56
2020/12/31 01:34:55;;;;;;;18.35;13.25;;;;;;;;;;5035255;28;20228;-55
2020/12/31 01:37:22;;;;;;;19.33;12.98;;;;;;;;;;5035511;28;20228;-55
2020/12/31 01:39:49;;;;;;;19.02;13.05;;;;;;;;;;5035712;28;20198;-55
2020/12/31 01:42:16;;;;;;;18.42;12.80;;;;;;;;;;5035764;28;20219;-56
2020/12/31 01:44:43;;;;;;;20.52;12.95;;;;;;;;;;5035712;28;20210;-56
2020/12/31 01:47:11;;;;;;;18.38;12.85;;;;;;;;;;5035600;28;20210;-55
2020/12/31 01:49:38;;;;;;;17.42;13.32;;;;;;;;;;5035578;28;20198;-56
2020/12/31 01:52:05;;;;;;;16.63;12.38;;;;;;;;;;5035156;28;20277;-55
2020/12/31 01:54:32;;;;;;;16.48;12.82;;;;;;;;;;5035436;28;20210;-56
2020/12/31 01:56:59;;;;;;;15.85;11.48;;;;;;;;;;5035476;28;20202;-56
2020/12/31 01:59:26;;;;;;;14.68;11.20;;;;;;;;;;5035510;28;20249;-56
2020/12/31 02:01:54;;;;;;;15.68;11.13;;;;;;;;;;5035722;28;20234;-56
2020/12/31 02:04:22;;;;;;;14.25;10.50;;;;;;;;;;5035766;28;20256;-56
2020/12/31 02:06:51;;;;;;;13.23;10.80;;;;;;;;;;5034886;28;20213;-55
2020/12/31 02:09:18;;;;;;;14.27;11.75;;;;;;;;;;5035149;28;20218;-55
2020/12/31 02:11:44;;;;;;;16.63;12.43;;;;;;;;;;5035127;28;20218;-55
2020/12/31 02:14:11;;;;;;;15.63;11.63;;;;;;;;;;5036047;28;20198;-55
2020/12/31 02:16:39;;;;;;;14.30;11.40;;;;;;;;;;5036365;28;20215;-56
2020/12/31 02:19:07;;;;;;;16.30;12.35;;;;;;;;;;5037165;28;20240;-56
2020/12/31 02:21:35;;;;;;;15.90;11.30;;;;;;;;;;5036182;28;20222;-56
2020/12/31 02:24:04;;;;;;;16.58;12.30;;;;;;;;;;5036469;28;20252;-56
2020/12/31 02:26:31;;;;;;;14.35;12.07;;;;;;;;;;5035677;28;20202;-56
2020/12/31 02:28:59;;;;;;;15.73;11.70;;;;;;;;;;5035765;28;20218;-56
2020/12/31 02:31:26;;;;;;;19.63;12.15;;;;;;;;;;5034926;28;20222;-56
2020/12/31 02:33:53;;;;;;;16.13;12.20;;;;;;;;;;5034612;28;20210;-56
2020/12/31 02:36:21;;;;;;;17.10;12.15;;;;;;;;;;5034943;28;20206;-56
2020/12/31 02:38:48;;;;;;;15.05;11.57;;;;;;;;;;5034688;28;20713;-56
2020/12/31 02:41:16;;;;;;;15.52;11.40;;;;;;;;;;5034591;28;20269;-56
2020/12/31 02:43:43;;;;;;;12.43;10.52;;;;;;;;;;5034621;28;20372;-57
2020/12/31 02:46:10;;;;;;;13.70;10.85;;;;;;;;;;5033290;28;20210;-56
2020/12/31 02:48:37;;;;;;;12.23;9.60;;;;;;;;;;5034259;28;20268;-57
2020/12/31 02:51:04;;;;;;;14.38;10.90;;;;;;;;;;5035031;28;20222;-56
2020/12/31 02:53:31;;;;;;;13.25;10.30;;;;;;;;;;5035293;28;20611;-56
2020/12/31 02:55:58;;;;;;;17.77;11.05;;;;;;;;;;5034529;28;20621;-56
2020/12/31 02:58:25;;;;;;;13.77;10.95;;;;;;;;;;5034277;28;20583;-56
2020/12/31 03:00:52;;;;;;;16.45;11.98;;;;;;;;;;5033877;28;20232;-56
2020/12/31 03:03:19;;;;;;;13.60;10.80;;;;;;;;;;5060926;22;20230;-60
2020/12/31 03:05:45;;;;;;;17.48;12.13;;;;;;;;;;5037068;28;20260;-60
2020/12/31 03:08:12;;;;;;;13.50;10.60;;;;;;;;;;5035171;28;20222;-60
2020/12/31 03:10:39;;;;;;;15.18;10.70;;;;;;;;;;5034899;28;20202;-60
2020/12/31 03:13:06;;;;;;;14.65;11.18;;;;;;;;;;5035976;28;20225;-60
2020/12/31 03:15:33;;;;;;;15.27;10.30;;;;;;;;;;5035420;28;20272;-60
2020/12/31 03:18:00;;;;;;;10.32;9.05;;;;;;;;;;5034900;28;20716;-60
2020/12/31 03:20:27;;;;;;;14.65;11.02;;;;;;;;;;5035585;28;20214;-61
2020/12/31 03:22:54;;;;;;;15.20;11.27;;;;;;;;;;5035557;28;20705;-61
2020/12/31 03:25:20;;;;;;;13.20;10.13;;;;;;;;;;5035646;28;20206;-60
2020/12/31 03:27:47;;;;;;;11.52;10.00;;;;;;;;;;5036016;28;20230;-59
2020/12/31 03:30:14;;;;;;;12.75;10.27;;;;;;;;;;5035103;28;20206;-59
2020/12/31 03:32:41;;;;;;;13.23;10.43;;;;;;;;;;5034629;28;20222;-61
2020/12/31 03:35:08;;;;;;;13.60;9.80;;;;;;;;;;5034535;28;20202;-60
2020/12/31 03:37:35;;;;;;;15.88;9.65;;;;;;;;;;5035270;28;20211;-60
2020/12/31 03:40:02;;;;;;;14.25;9.82;;;;;;;;;;5035776;28;20206;-61
2020/12/31 03:42:29;;;;;;;11.13;8.82;;;;;;;;;;5034900;28;20602;-61
2020/12/31 03:44:56;;;;;;;13.30;9.50;;;;;;;;;;5034170;28;20206;-60
2020/12/31 03:47:22;;;;;;;14.20;9.80;;;;;;;;;;5034431;28;20198;-60
2020/12/31 03:49:50;;;;;;;13.07;9.93;;;;;;;;;;5034278;28;20202;-60
2020/12/31 03:52:17;;;;;;;10.32;8.90;;;;;;;;;;5034144;28;20347;-60
2020/12/31 03:54:44;;;;;;;10.73;8.57;;;;;;;;;;5034175;28;20578;-61
2020/12/31 03:57:11;;;;;;;12.00;9.15;;;;;;;;;;5034014;28;20207;-61
2020/12/31 03:59:38;;;;;;;10.00;8.52;;;;;;;;;;5034182;28;20587;-61
2020/12/31 04:02:05;;;;;;;12.68;9.65;;;;;;;;;;5034702;28;20610;-61
2020/12/31 04:07:31;;;;;;;9.75;8.55;;;;;;;;;;5114241;27;20544;-60
2020/12/31 04:09:58;;;;;;;10.20;8.48;;;;;;;;;;5114026;28;20199;-59
2020/12/31 04:12:25;;;;;;;11.23;8.10;;;;;;;;;;5112345;28;20219;-59
2020/12/31 04:14:52;;;;;;;11.27;8.57;;;;;;;;;;5112872;28;20680;-60
2020/12/31 04:17:18;;;;;;;8.65;7.60;;;;;;;;;;5112939;28;20196;-60
2020/12/31 04:19:51;;;;;;;11.05;7.72;;;;;;;;;;5113531;28;20207;-59
2020/12/31 04:22:18;;;;;;;7.60;6.38;;;;;;;;;;5115629;28;20249;-60
2020/12/31 04:24:46;;;;;;;8.55;6.95;;;;;;;;;;5117654;28;20230;-59
2020/12/31 04:27:13;;;;;;;8.05;6.85;;;;;;;;;;5117078;28;20219;-60
2020/12/31 04:29:40;;;;;;;9.25;7.40;;;;;;;;;;5115611;28;20200;-60
2020/12/31 04:32:07;;;;;;;9.02;6.82;;;;;;;;;;5117198;28;20231;-60
2020/12/31 04:34:33;;;;;;;6.65;5.95;;;;;;;;;;5115070;28;20203;-59
2020/12/31 04:37:00;;;;;;;7.80;6.32;;;;;;;;;;5112017;28;20195;-59
2020/12/31 04:39:27;;;;;;;7.93;6.00;;;;;;;;;;5111873;28;20211;-60
2020/12/31 04:41:58;;;;;;;8.32;7.22;;;;;;;;;;5113370;28;20231;-60
2020/12/31 04:44:24;;;;;;;7.50;5.97;;;;;;;;;;5112183;28;20184;-61
2020/12/31 04:46:54;;;;;;;7.07;6.38;;;;;;;;;;5111113;28;20215;-61
2020/12/31 04:49:21;;;;;;;7.03;5.88;;;;;;;;;;5111375;28;20207;-60
2020/12/31 04:51:48;;;;;;;8.00;6.30;;;;;;;;;;5111102;28;20220;-60
2020/12/31 04:54:15;;;;;;;9.25;5.78;;;;;;;;;;5111613;28;20546;-60
2020/12/31 04:56:42;;;;;;;5.55;5.05;;;;;;;;;;5111088;28;20207;-61
2020/12/31 04:59:09;;;;;;;6.00;5.07;;;;;;;;;;5110795;28;20200;-61
2020/12/31 05:01:36;;;;;;;5.80;5.07;;;;;;;;;;5110155;28;20220;-60
2020/12/31 05:04:03;;;;;;;5.22;4.72;;;;;;;;;;5111071;28;20202;-60
2020/12/31 05:06:35;;;;;;;6.05;4.55;;;;;;;;;;5110986;28;20298;-60
2020/12/31 05:09:14;;;;;;;5.95;4.80;;;;;;;;;;5111080;28;20184;-60
2020/12/31 05:11:45;;;;;;;7.68;5.18;;;;;;;;;;5110643;28;20230;-60
2020/12/31 05:14:13;;;;;;;4.85;4.43;;;;;;;;;;5111388;28;20195;-62
2020/12/31 05:16:39;;;;;;;5.75;4.80;;;;;;;;;;5111351;28;20226;-60
2020/12/31 05:19:30;;;;;;;5.50;5.00;;;;;;;;;;5097481;28;20211;-60
2020/12/31 05:22:13;;;;;;;6.45;5.25;;;;;;;;;;5081996;28;20231;-60
2020/12/31 05:24:41;;;;;;;5.53;4.90;;;;;;;;;;5098382;28;20277;-60
2020/12/31 05:27:17;;;;;;;6.00;4.80;;;;;;;;;;5097765;28;20216;-60
2020/12/31 05:29:54;;;;;;;5.50;4.88;;;;;;;;;;5098793;28;20726;-60
2020/12/31 05:32:22;;;;;;;6.63;5.80;;;;;;;;;;5099663;28;20228;-60
2020/12/31 05:34:49;;;;;;;6.25;5.07;;;;;;;;;;5098747;28;20197;-59
2020/12/31 05:37:16;;;;;;;6.13;5.28;;;;;;;;;;5097835;28;20223;-61
2020/12/31 05:39:54;;;;;;;5.68;5.07;;;;;;;;;;5096926;28;20204;-60
2020/12/31 05:42:21;;;;;;;6.38;4.60;;;;;;;;;;5096685;28;20242;-60
2020/12/31 05:44:59;;;;;;;6.07;5.05;;;;;;;;;;5096228;28;20204;-60
2020/12/31 05:47:26;;;;;;;6.43;5.53;;;;;;;;;;5096308;28;20200;-60
2020/12/31 05:49:53;;;;;;;5.80;4.95;;;;;;;;;;5095852;28;20204;-60
2020/12/31 05:52:33;;;;;;;5.38;4.32;;;;;;;;;;5095973;28;20277;-60
2020/12/31 05:55:01;;;;;;;6.82;5.70;;;;;;;;;;5095848;28;20219;-60
2020/12/31 05:57:31;;;;;;;7.93;6.32;;;;;;;;;;5095998;28;20196;-60
2020/12/31 06:00:00;;;;;;;7.65;5.85;;;;;;;;;;5095484;28;20211;-60
2020/12/31 06:02:27;;;;;;;5.93;5.00;;;;;;;;;;5096022;28;20320;-61
2020/12/31 06:04:57;;;;;;;8.05;5.80;;;;;;;;;;5096503;28;20200;-61
2020/12/31 06:07:32;;;;;;;7.47;5.50;;;;;;;;;;5095694;28;20715;-60
2020/12/31 06:10:03;;;;;;;6.28;4.93;;;;;;;;;;5095930;28;20184;-62
2020/12/31 06:12:33;;;;;;;5.80;5.13;;;;;;;;;;5096037;28;20232;-61
2020/12/31 06:15:01;;;;;;;5.45;4.95;;;;;;;;;;5095931;28;20204;-61
2020/12/31 06:17:42;;;;;;;7.07;5.55;;;;;;;;;;5096067;28;20570;-60
2020/12/31 06:20:12;;;;;;;6.63;5.85;;;;;;;;;;5095673;28;20191;-60
2020/12/31 06:22:52;;;;;;;7.57;6.00;;;;;;;;;;5095924;28;20572;-59
2020/12/31 06:25:30;;;;;;;6.38;5.75;;;;;;;;;;5095483;28;20234;-58
2020/12/31 06:28:00;;;;;;;5.82;5.25;;;;;;;;;;5096428;28;20205;-61
2020/12/31 06:30:28;;;;;;;7.97;5.95;;;;;;;;;;5095332;28;20185;-60
2020/12/31 06:32:56;;;;;;;8.63;6.43;;;;;;;;;;5095902;28;20221;-60
2020/12/31 06:35:23;;;;;;;6.15;5.55;;;;;;;;;;5095217;28;20196;-59
2020/12/31 06:37:57;;;;;;;8.88;6.43;;;;;;;;;;5095832;28;20204;-59
2020/12/31 06:40:24;;;;;;;8.60;6.15;;;;;;;;;;5096101;28;20568;-59
2020/12/31 06:43:01;;;;;;;9.70;6.90;;;;;;;;;;5095975;28;20231;-60
2020/12/31 06:45:34;;;;;;;6.70;6.00;;;;;;;;;;5095930;28;20188;-60
2020/12/31 06:48:02;;;;;;;7.63;6.60;;;;;;;;;;5096218;28;20203;-60
2020/12/31 06:50:47;;;;;;;8.32;6.85;;;;;;;;;;5096010;28;20203;-59
2020/12/31 06:53:30;;;;;;;7.25;6.43;;;;;;;;;;5096129;28;20228;-59
2020/12/31 06:55:57;;;;;;;8.10;6.82;;;;;;;;;;5096739;28;20197;-60
2020/12/31 06:58:24;;;;;;;8.98;6.95;;;;;;;;;;5096146;28;20204;-59
2020/12/31 07:00:51;;;;;;;9.15;7.55;;;;;;;;;;5096174;28;20760;-60
2020/12/31 07:03:33;;;;;;;10.45;7.47;;;;;;;;;;5096056;28;20717;-60
2020/12/31 07:06:15;;;;;;;8.20;6.40;;;;;;;;;;5095495;28;20216;-60
2020/12/31 07:08:44;;;;;;;8.60;7.45;;;;;;;;;;5095900;28;20215;-60
2020/12/31 07:11:10;;;;;;;9.38;6.95;;;;;;;;;;5094846;28;20206;-60
2020/12/31 07:13:40;;;;;;;8.40;7.03;;;;;;;;;;5094705;28;20227;-60
2020/12/31 07:16:07;;;;;;;11.13;8.13;;;;;;;;;;5095611;28;20196;-60
2020/12/31 07:18:33;;;;;;;10.02;7.65;;;;;;;;;;5095243;28;20211;-60
2020/12/31 07:21:00;;;;;;;11.60;8.40;;;;;;;;;;5094882;28;20660;-60
2020/12/31 07:23:37;;;;;;;9.80;7.85;;;;;;;;;;5095246;28;20227;-59
2020/12/31 07:26:05;;;;;;;8.23;6.90;;;;;;;;;;5095384;28;20208;-59
2020/12/31 07:28:32;;;;;;;10.10;6.95;;;;;;;;;;5094741;28;20694;-60
2020/12/31 07:30:58;;;;;;;11.07;8.40;;;;;;;;;;5094626;28;20724;-59
2020/12/31 07:33:35;;;;;;;9.02;7.75;;;;;;;;;;5095108;28;20216;-60
2020/12/31 07:36:12;;;;;;;10.32;8.38;;;;;;;;;;5095458;28;20177;-61
2020/12/31 07:38:39;;;;;;;7.63;6.82;;;;;;;;;;5095429;28;20216;-60
2020/12/31 07:41:11;;;;;;;9.30;7.63;;;;;;;;;;5094439;28;20200;-61
2020/12/31 07:43:38;;;;;;;9.85;7.20;;;;;;;;;;5094741;28;20226;-59
2020/12/31 07:46:05;;;;;;;10.80;7.72;;;;;;;;;;5095728;28;20224;-60
2020/12/31 07:48:32;;;;;;;9.95;7.50;;;;;;;;;;5099491;28;20232;-58
2020/12/31 07:51:00;;;;;;;10.75;8.43;;;;;;;;;;5101171;28;20667;-59
2020/12/31 07:53:27;;;;;;;9.93;7.22;;;;;;;;;;5096990;28;20238;-59
2020/12/31 07:55:54;;;;;;;11.50;7.78;;;;;;;;;;5096955;28;20385;-59
2020/12/31 07:58:22;;;;;;;9.05;7.10;;;;;;;;;;5095682;28;20208;-60
2020/12/31 08:00:57;;;;;;;8.18;6.85;;;;;;;;;;5096009;28;20201;-59
2020/12/31 08:03:24;;;;;;;8.50;7.57;;;;;;;;;;5097796;28;20224;-59
2020/12/31 08:05:56;;;;;;;9.63;7.68;;;;;;;;;;5097115;28;20217;-60
2020/12/31 08:08:23;;;;;;;8.40;7.43;;;;;;;;;;5096878;28;20196;-60
2020/12/31 08:10:50;;;;;;;9.73;7.22;;;;;;;;;;5095841;28;20200;-59
2020/12/31 08:13:17;;;;;;;10.60;7.82;;;;;;;;;;5094546;28;20220;-59
2020/12/31 08:15:50;;;;;;;12.80;7.25;;;;;;;;;;5094293;28;20210;-60
2020/12/31 08:18:17;;;;;;;8.95;7.47;;;;;;;;;;5094211;28;20185;-59
2020/12/31 08:20:44;;;;;;;8.05;6.80;;;;;;;;;;5094180;28;20207;-60
2020/12/31 08:23:14;;;;;;;9.50;7.50;;;;;;;;;;5093927;28;20223;-59
2020/12/31 08:25:42;;;;;;;9.25;8.30;;;;;;;;;;5094258;28;20561;-60
2020/12/31 08:28:09;;;;;;;8.18;7.03;;;;;;;;;;5094156;28;20291;-60
2020/12/31 08:30:37;;;;;;;13.30;8.02;;;;;;;;;;5094397;28;20212;-58
2020/12/31 08:33:07;;;;;;;8.57;7.32;;;;;;;;;;5094161;28;20604;-60
2020/12/31 08:35:38;;;;;;;12.15;8.40;;;;;;;;;;5094341;28;20197;-61
2020/12/31 08:38:06;;;;;;;8.63;6.70;;;;;;;;;;5093892;28;20234;-59
2020/12/31 08:40:34;;;;;;;10.48;8.20;;;;;;;;;;5094109;28;20207;-59
2020/12/31 08:43:01;;;;;;;8.85;7.80;;;;;;;;;;5094521;28;20224;-59
2020/12/31 08:45:29;;;;;;;8.60;7.57;;;;;;;;;;5095049;28;20205;-59
2020/12/31 08:48:10;;;;;;;8.07;7.25;;;;;;;;;;5098057;28;20291;-59
2020/12/31 08:50:37;;;;;;;9.35;7.75;;;;;;;;;;5097046;28;20185;-59
2020/12/31 08:53:03;;;;;;;10.02;7.70;;;;;;;;;;5097999;28;20269;-60
2020/12/31 08:55:30;;;;;;;8.73;7.82;;;;;;;;;;5098711;28;20196;-60
2020/12/31 08:58:10;;;;;;;10.13;8.98;;;;;;;;;;5097348;28;20201;-59
2020/12/31 09:00:37;;;;;;;8.52;7.00;;;;;;;;;;5098281;28;20521;-61
2020/12/31 09:03:04;;;;;;;8.85;7.65;;;;;;;;;;5096709;28;20719;-60
2020/12/31 09:05:32;;;;;;;10.48;8.85;;;;;;;;;;5097121;28;20212;-60
2020/12/31 09:08:02;;;;;;;9.35;7.65;;;;;;;;;;5097805;28;20185;-60
2020/12/31 09:10:31;;;;;;;9.85;8.77;;;;;;;;;;5097518;28;20208;-59
2020/12/31 09:12:58;;;;;;;10.63;8.85;;;;;;;;;;5097045;28;20311;-59
2020/12/31 09:15:25;;;;;;;8.43;7.53;;;;;;;;;;5098268;28;20200;-60
2020/12/31 09:17:52;;;;;;;9.90;8.20;;;;;;;;;;5097611;28;20196;-59
2020/12/31 09:20:23;;;;;;;9.18;8.25;;;;;;;;;;5097606;28;20257;-59
2020/12/31 09:22:51;;;;;;;9.32;8.38;;;;;;;;;;5097049;28;20570;-60
2020/12/31 09:25:18;;;;;;;11.30;8.18;;;;;;;;;;5097177;28;20610;-60
2020/12/31 09:27:49;;;;;;;9.18;8.00;;;;;;;;;;5097277;28;20227;-59
2020/12/31 09:30:17;;;;;;;11.55;8.65;;;;;;;;;;5097205;28;20181;-61
2020/12/31 09:32:48;;;;;;;10.15;8.90;;;;;;;;;;5096869;28;20224;-59
2020/12/31 09:35:16;;;;;;;11.50;8.35;;;;;;;;;;5097283;28;20227;-60
2020/12/31 09:37:49;;;;;;;11.10;10.00;;;;;;;;;;5097088;28;20246;-60
2020/12/31 09:40:17;;;;;;;10.68;8.70;;;;;;;;;;5096990;28;20212;-59
2020/12/31 09:42:44;;;;;;;10.20;8.65;;;;;;;;;;5096870;28;20290;-59
2020/12/31 09:45:11;;;;;;;9.65;8.75;;;;;;;;;;5097866;28;20196;-59
2020/12/31 09:47:37;;;;;;;9.80;8.65;;;;;;;;;;5097009;28;20220;-59
2020/12/31 09:50:04;;;;;;;13.07;9.38;;;;;;;;;;5096740;28;20230;-60
2020/12/31 09:52:32;;;;;;;10.70;8.63;;;;;;;;;;5096752;28;20730;-60
2020/12/31 09:54:59;;;;;;;11.40;9.15;;;;;;;;;;5096549;28;20243;-60
2020/12/31 09:57:27;;;;;;;8.77;7.90;;;;;;;;;;5096451;28;20197;-60
2020/12/31 09:59:53;;;;;;;11.40;9.70;;;;;;;;;;5096493;28;20239;-60
2020/12/31 10:02:20;;;;;;;9.95;8.48;;;;;;;;;;5097011;28;20294;-60
2020/12/31 10:04:47;;;;;;;10.23;8.48;;;;;;;;;;5098118;28;20227;-60
2020/12/31 10:07:14;;;;;;;11.77;9.88;;;;;;;;;;5097716;28;20303;-59
2020/12/31 10:09:40;;;;;;;12.13;9.70;;;;;;;;;;5098496;28;20207;-60
2020/12/31 10:12:07;;;;;;;11.98;9.77;;;;;;;;;;5099345;28;20277;-59
2020/12/31 10:14:35;;;;;;;9.80;8.70;;;;;;;;;;5099287;28;20211;-60
2020/12/31 10:17:02;;;;;;;10.30;8.88;;;;;;;;;;5101291;28;20197;-60
2020/12/31 10:19:29;;;;;;;10.55;9.00;;;;;;;;;;5099592;28;20245;-61
2020/12/31 10:21:55;;;;;;;9.68;8.68;;;;;;;;;;5098840;28;20235;-60
2020/12/31 10:24:22;;;;;;;9.68;8.18;;;;;;;;;;5100133;28;20260;-60
2020/12/31 10:26:49;;;;;;;9.48;8.00;;;;;;;;;;5099216;28;20734;-60
2020/12/31 10:29:16;;;;;;;9.02;8.07;;;;;;;;;;5099457;28;20203;-60
2020/12/31 10:31:44;;;;;;;8.40;7.60;;;;;;;;;;5099564;28;20234;-60
2020/12/31 10:34:11;;;;;;;8.32;7.38;;;;;;;;;;5099649;28;20230;-61
2020/12/31 10:36:38;;;;;;;9.18;7.82;;;;;;;;;;5099112;28;20192;-61
2020/12/31 10:39:05;;;;;;;8.75;7.50;;;;;;;;;;5098257;28;20208;-61
2020/12/31 10:41:31;;;;;;;9.35;8.45;;;;;;;;;;5100689;28;20197;-61
2020/12/31 10:43:58;;;;;;;8.10;7.18;;;;;;;;;;5101350;28;20204;-62
2020/12/31 10:46:26;;;;;;;8.75;6.70;;;;;;;;;;5101174;28;20220;-60
2020/12/31 10:48:54;;;;;;;9.25;7.25;;;;;;;;;;5100712;28;20211;-60
2020/12/31 10:51:20;;;;;;;7.13;6.00;;;;;;;;;;5103040;28;20553;-61
2020/12/31 10:53:47;;;;;;;7.90;7.10;;;;;;;;;;5101690;28;20636;-60
2020/12/31 10:56:19;;;;;;;8.60;6.93;;;;;;;;;;5098367;28;20696;-61
2020/12/31 10:58:45;;;;;;;7.50;6.25;;;;;;;;;;5096025;28;20184;-61
2020/12/31 11:01:14;;;;;;;8.73;6.18;;;;;;;;;;5095729;28;20200;-62
2020/12/31 11:03:41;;;;;;;9.32;6.85;;;;;;;;;;5095434;28;20291;-61
2020/12/31 11:06:08;;;;;;;8.70;6.70;;;;;;;;;;5095662;28;20220;-61
2020/12/31 11:08:35;;;;;;;11.57;9.30;;;;;;;;;;5096472;28;20200;-61
2020/12/31 11:11:02;;;;;;;9.27;8.13;;;;;;;;;;5096870;28;20200;-62
2020/12/31 11:13:28;;;;;;;6.45;5.85;;;;;;;;;;5095831;28;20224;-60
2020/12/31 11:15:55;;;;;;;7.53;5.75;;;;;;;;;;5094672;28;20200;-61
2020/12/31 11:18:22;;;;;;;7.57;5.75;;;;;;;;;;5099252;28;20204;-62
2020/12/31 11:20:52;;;;;;;11.48;6.28;;;;;;;;;;5102625;28;20204;-62
2020/12/31 11:23:20;;;;;;;6.50;5.80;;;;;;;;;;5103633;28;20228;-62
2020/12/31 11:25:47;;;;;;;6.30;5.70;;;;;;;;;;5099925;28;20200;-62
2020/12/31 11:28:13;;;;;;;7.80;6.50;;;;;;;;;;5098201;28;20200;-62
2020/12/31 11:30:40;;;;;;;8.32;7.18;;;;;;;;;;5098260;28;20200;-60
2020/12/31 11:33:07;;;;;;;6.75;6.00;;;;;;;;;;5097156;28;20220;-61
2020/12/31 11:35:34;;;;;;;8.23;6.57;;;;;;;;;;5097236;28;20200;-62
2020/12/31 11:38:00;;;;;;;8.45;6.60;;;;;;;;;;5098421;28;20196;-61
2020/12/31 11:40:28;;;;;;;6.40;5.35;;;;;;;;;;5096465;28;20204;-61
2020/12/31 11:42:55;;;;;;;6.28;5.65;;;;;;;;;;5096061;28;20220;-60
2020/12/31 11:45:22;;;;;;;7.20;6.13;;;;;;;;;;5095914;28;20253;-61
2020/12/31 11:47:48;;;;;;;6.50;5.78;;;;;;;;;;5095401;28;20216;-61
2020/12/31 11:50:15;;;;;;;7.20;5.22;;;;;;;;;;5096694;28;20210;-61
2020/12/31 11:52:42;;;;;;;5.80;5.20;;;;;;;;;;5096507;28;20254;-60
2020/12/31 11:55:09;;;;;;;4.88;4.47;;;;;;;;;;5097020;28;20204;-60
2020/12/31 11:57:37;;;;;;;5.68;5.07;;;;;;;;;;5097728;28;20203;-61
2020/12/31 12:00:04;;;;;;;8.00;5.05;;;;;;;;;;5096769;28;20586;-60
2020/12/31 12:02:31;;;;;;;5.53;4.40;;;;;;;;;;5095776;28;20235;-61
2020/12/31 12:04:57;;;;;;;5.50;4.38;;;;;;;;;;5095194;28;20211;-61
2020/12/31 12:07:24;;;;;;;6.22;4.47;;;;;;;;;;5095393;28;20232;-61
2020/12/31 12:09:51;;;;;;;4.80;4.30;;;;;;;;;;5095875;28;20672;-59
2020/12/31 12:12:19;;;;;;;8.38;4.60;;;;;;;;;;5095441;28;20236;-61
2020/12/31 12:14:47;;;;;;;4.85;4.15;;;;;;;;;;5094632;28;20196;-60
2020/12/31 12:17:13;;;;;;;5.70;4.53;;;;;;;;;;5095673;28;20192;-60
2020/12/31 12:19:40;;;;;;;5.07;4.20;;;;;;;;;;5095018;28;20196;-62
2020/12/31 12:22:07;;;;;;;5.00;4.20;;;;;;;;;;5095663;28;20221;-62
2020/12/31 12:24:33;;;;;;;6.18;4.65;;;;;;;;;;5099272;28;20196;-59
2020/12/31 12:27:00;;;;;;;8.85;4.55;;;;;;;;;;5094394;28;20220;-62
2020/12/31 12:29:27;;;;;;;4.70;4.28;;;;;;;;;;5097768;28;20200;-60
2020/12/31 12:31:55;;;;;;;4.90;4.40;;;;;;;;;;5097945;28;20220;-62
2020/12/31 12:34:21;;;;;;;5.90;4.90;;;;;;;;;;5098220;28;20586;-60
2020/12/31 12:36:49;;;;;;;4.70;3.90;;;;;;;;;;5099200;28;20196;-63
2020/12/31 12:39:17;;;;;;;4.47;4.05;;;;;;;;;;5098987;28;20286;-63
2020/12/31 12:41:44;;;;;;;5.90;4.20;;;;;;;;;;5099883;28;20224;-63
2020/12/31 12:44:12;;;;;;;4.78;4.38;;;;;;;;;;5098716;28;20200;-64
2020/12/31 12:46:38;;;;;;;21.00;15.80;;;;;;;;;;5099537;28;20585;-64
2020/12/31 12:49:06;;;;;;;13.13;9.20;;;;;;;;;;5098413;28;20204;-62
2020/12/31 12:51:33;;;;;;;8.02;6.78;;;;;;;;;;5097471;28;20196;-60
2020/12/31 12:54:00;;;;;;;7.53;5.20;;;;;;;;;;5097219;28;20207;-61
2020/12/31 12:56:27;;;;;;;5.85;4.93;;;;;;;;;;5097031;28;20197;-61
2020/12/31 12:58:54;;;;;;;6.25;4.88;;;;;;;;;;5097799;28;20196;-61
2020/12/31 13:01:23;;;;;;;4.85;3.95;;;;;;;;;;5097615;28;20204;-62
2020/12/31 13:03:50;;;;;;;5.20;4.65;;;;;;;;;;5098131;28;20691;-60
2020/12/31 13:06:18;;;;;;;6.07;4.55;;;;;;;;;;5097689;28;20715;-64
2020/12/31 13:08:45;;;;;;;7.30;5.45;;;;;;;;;;5097698;28;20211;-63
2020/12/31 13:11:14;;;;;;;4.65;4.25;;;;;;;;;;5098368;28;20258;-63
2020/12/31 13:13:41;;;;;;;5.15;4.63;;;;;;;;;;5098981;28;20283;-65
2020/12/31 13:16:08;;;;;;;6.43;4.50;;;;;;;;;;5098982;28;20196;-61
2020/12/31 13:18:36;;;;;;;4.85;4.35;;;;;;;;;;5098214;28;20215;-60
2020/12/31 13:21:02;;;;;;;4.60;4.20;;;;;;;;;;5098323;28;20200;-59
2020/12/31 13:23:30;;;;;;;7.60;4.82;;;;;;;;;;5097598;28;20221;-60
2020/12/31 13:26:00;;;;;;;5.07;4.60;;;;;;;;;;5097522;28;20219;-58
2020/12/31 13:28:26;;;;;;;4.50;3.78;;;;;;;;;;5097966;28;20245;-61
2020/12/31 13:30:57;;;;;;;5.32;4.82;;;;;;;;;;5097680;28;20208;-60
2020/12/31 13:33:24;;;;;;;4.03;3.63;;;;;;;;;;5098211;28;20619;-61
2020/12/31 13:35:51;;;;;;;5.70;4.30;;;;;;;;;;5098210;28;20205;-60
2020/12/31 13:38:21;;;;;;;4.20;3.58;;;;;;;;;;5097813;28;20199;-61
2020/12/31 13:40:48;;;;;;;3.70;3.40;;;;;;;;;;5097831;28;20623;-60
2020/12/31 13:43:16;;;;;;;4.40;3.88;;;;;;;;;;5099133;28;20228;-61
2020/12/31 13:45:43;;;;;;;4.18;3.72;;;;;;;;;;5100683;28;20222;-61
2020/12/31 13:48:09;;;;;;;4.70;4.30;;;;;;;;;;5102313;28;20232;-60
2020/12/31 13:50:37;;;;;;;6.60;4.50;;;;;;;;;;5102966;28;20230;-62
2020/12/31 13:53:04;;;;;;;6.28;3.67;;;;;;;;;;5100474;28;20228;-60
2020/12/31 13:55:38;;;;;;;4.57;3.30;;;;;;;;;;5097498;28;20204;-61
2020/12/31 13:58:08;;;;;;;6.18;4.40;;;;;;;;;;5097291;28;20275;-59
2020/12/31 14:00:35;;;;;;;3.90;3.25;;;;;;;;;;5096537;28;20648;-64
2020/12/31 14:03:02;;;;;;;6.65;4.70;;;;;;;;;;5097283;28;20708;-63
2020/12/31 14:05:28;;;;;;;5.80;5.25;;;;;;;;;;5097694;28;20668;-62
2020/12/31 14:07:55;;;;;;;7.07;4.40;;;;;;;;;;5098237;28;20208;-61
2020/12/31 14:10:22;;;;;;;5.85;4.32;;;;;;;;;;5098563;28;20660;-61
2020/12/31 14:12:49;;;;;;;4.90;4.03;;;;;;;;;;5101831;28;20220;-60
2020/12/31 14:15:17;;;;;;;6.07;4.20;;;;;;;;;;5107734;28;20204;-61
2020/12/31 14:17:43;;;;;;;6.15;4.30;;;;;;;;;;5106319;28;20681;-61
2020/12/31 14:20:10;;;;;;;8.68;6.18;;;;;;;;;;5102912;28;20570;-60
2020/12/31 14:22:37;;;;;;;5.13;4.00;;;;;;;;;;5096339;28;20224;-61
2020/12/31 14:25:04;;;;;;;8.18;5.82;;;;;;;;;;5097082;28;20208;-60
2020/12/31 14:27:31;;;;;;;10.20;6.03;;;;;;;;;;5095680;28;20213;-61
2020/12/31 14:30:00;;;;;;;7.30;5.05;;;;;;;;;;5095651;28;20201;-60
2020/12/31 14:32:28;;;;;;;6.75;5.82;;;;;;;;;;5096087;28;20216;-61
2020/12/31 14:34:54;;;;;;;11.48;8.60;;;;;;;;;;5095376;28;20257;-62
2020/12/31 14:37:21;;;;;;;7.80;5.63;;;;;;;;;;5095917;28;20196;-59
2020/12/31 14:39:48;;;;;;;5.13;4.63;;;;;;;;;;5095626;28;20204;-61
2020/12/31 14:42:18;;;;;;;6.15;4.30;;;;;;;;;;5095360;28;20228;-60